Time;durP1;ratioP1;P1;durP2;ratioP2;P2;SDS_P1;SDS_P2;PMS_P1;PMS_P2;Temp;Humidity;BMP_temperature;BMP_pressure;BME280_temperature;BME280_humidity;BME280_pressure;Samples;Min_cycle;Max_cycle;Signal;HPM_P1;HPM_P2
2023/04/06 00:02:24;;;;;;;10.05;3.40;;;4.70;99.10;;;4.58;77.85;101235.56;5184031;28;20133;-78
2023/04/06 00:04:56;;;;;;;6.35;3.03;;;4.70;99.20;;;4.54;78.40;101220.63;5186759;28;20065;-77
2023/04/06 00:07:29;;;;;;;6.43;2.90;;;4.70;99.60;;;4.50;78.89;101220.31;5188961;28;20486;-78
2023/04/06 00:10:04;;;;;;;5.68;2.97;;;4.60;99.90;;;4.44;79.33;101226.00;5184116;28;20042;-78
2023/04/06 00:12:36;;;;;;;6.93;3.00;;;4.60;99.90;;;4.37;79.94;101228.97;5182138;28;20076;-78
2023/04/06 00:15:10;;;;;;;6.05;3.10;;;4.50;99.90;;;4.32;80.74;101220.91;5183994;28;20466;-78
2023/04/06 00:17:42;;;;;;;5.95;3.08;;;4.50;99.90;;;4.26;80.86;101224.78;5182252;28;20088;-78
2023/04/06 00:20:14;;;;;;;6.20;3.60;;;4.40;99.90;;;4.20;80.91;101219.22;5184423;28;20497;-81
2023/04/06 00:22:46;;;;;;;6.72;3.38;;;4.40;99.90;;;4.13;81.66;101220.47;5183971;28;20046;-78
2023/04/06 00:25:20;;;;;;;6.30;2.95;;;4.30;99.90;;;4.09;81.88;101216.78;5184303;28;20121;-78
2023/04/06 00:27:52;;;;;;;5.22;3.15;;;4.20;99.90;;;4.07;82.63;101210.66;5183538;28;20420;-78
2023/04/06 00:30:24;;;;;;;7.28;3.35;;;4.20;99.90;;;4.06;82.89;101210.53;5183364;28;20112;-78
2023/04/06 00:32:57;;;;;;;6.35;3.33;;;4.20;99.90;;;4.03;83.02;101211.22;5184279;28;20050;-78
2023/04/06 00:35:29;;;;;;;6.53;3.15;;;4.20;99.90;;;3.98;83.14;101206.56;5182296;28;20527;-77
2023/04/06 00:38:01;;;;;;;5.30;2.85;;;4.10;99.90;;;3.93;83.38;101202.78;5182182;28;20041;-77
2023/04/06 00:40:35;;;;;;;9.10;3.67;;;4.10;99.90;;;3.90;83.77;101206.03;5182634;28;20054;-79
2023/04/06 00:43:08;;;;;;;7.10;3.50;;;4.10;99.90;;;3.87;84.40;101199.78;5175275;28;20054;-78
2023/04/06 00:45:42;;;;;;;8.52;3.47;;;4.00;99.90;;;3.83;84.37;101196.06;5183753;28;20416;-77
2023/04/06 00:48:14;;;;;;;6.47;3.55;;;4.00;99.90;;;3.79;84.67;101196.69;5182420;28;20042;-78
2023/04/06 00:50:46;;;;;;;6.22;3.33;;;4.00;99.90;;;3.78;84.88;101197.44;5185729;28;20073;-79
2023/04/06 00:53:18;;;;;;;6.35;3.38;;;4.00;99.90;;;3.74;84.81;101190.31;5187879;28;20137;-78
2023/04/06 00:55:52;;;;;;;8.02;3.55;;;3.90;99.90;;;3.71;84.84;101184.94;5186139;28;20535;-77
2023/04/06 00:58:25;;;;;;;6.97;3.75;;;3.90;99.90;;;3.70;85.20;101183.13;5186176;28;20512;-77
2023/04/06 01:01:06;;;;;;;7.68;3.40;;;3.80;99.90;;;3.68;85.50;101179.56;5186719;28;20037;-76
2023/04/06 01:03:39;;;;;;;4.88;2.90;;;3.80;99.90;;;3.65;85.47;101164.81;5186211;28;20049;-79
2023/04/06 01:06:12;;;;;;;10.60;4.00;;;3.80;99.90;;;3.64;85.66;101165.56;5186737;28;20057;-77
2023/04/06 01:08:46;;;;;;;6.28;3.35;;;3.80;99.90;;;3.59;85.68;101168.66;5187018;28;20038;-78
2023/04/06 01:11:27;;;;;;;7.57;3.88;;;3.70;99.90;;;3.56;85.98;101158.09;5187407;28;20054;-77
2023/04/06 01:13:59;;;;;;;7.80;3.90;;;3.70;99.90;;;3.51;85.97;101161.25;5187828;28;20042;-78
2023/04/06 01:16:35;;;;;;;6.80;3.60;;;3.70;99.90;;;3.49;86.17;101161.94;5186306;28;20057;-80
2023/04/06 01:19:13;;;;;;;7.32;3.45;;;3.70;99.90;;;3.47;86.75;101160.97;5202198;28;20042;-79
2023/04/06 01:21:53;;;;;;;8.38;3.80;;;3.60;99.90;;;3.46;86.85;101152.34;5186380;28;20078;-79
2023/04/06 01:24:52;;;;;;;6.38;2.83;;;3.60;99.90;;;3.44;87.12;101148.75;5185814;28;20069;-78
2023/04/06 01:27:32;;;;;;;8.60;3.42;;;3.60;99.90;;;3.42;87.01;101144.28;5185853;28;20057;-75
2023/04/06 01:30:14;;;;;;;6.55;3.00;;;3.60;99.90;;;3.38;87.59;101143.16;5180366;28;20075;-78
2023/04/06 01:33:09;;;;;;;6.25;3.25;;;3.60;99.90;;;3.37;87.48;101141.38;5179477;28;20045;-78
2023/04/06 01:36:01;;;;;;;5.82;2.90;;;3.60;99.90;;;3.34;87.83;101130.88;5185427;28;20095;-79
2023/04/06 01:38:34;;;;;;;6.65;3.28;;;3.50;99.90;;;3.32;87.82;101132.44;5185410;28;20048;-79
2023/04/06 01:41:09;;;;;;;7.15;3.28;;;3.50;99.90;;;3.28;88.08;101127.88;5177715;28;20508;-79
2023/04/06 01:43:54;;;;;;;7.35;3.35;;;3.50;99.90;;;3.26;88.06;101137.19;5185431;28;20049;-77
2023/04/06 01:46:28;;;;;;;6.47;3.38;;;3.40;99.90;;;3.24;88.23;101125.84;5185580;28;20046;-79
2023/04/06 01:49:00;;;;;;;6.28;3.50;;;3.40;99.90;;;3.24;88.20;101128.44;5184685;28;20038;-78
2023/04/06 01:51:44;;;;;;;5.55;3.38;;;3.40;99.90;;;3.23;88.15;101124.97;5185304;28;20052;-77
2023/04/06 01:54:18;;;;;;;6.22;3.10;;;3.40;99.90;;;3.22;87.90;101130.03;5185271;28;20559;-76
2023/04/06 01:57:11;;;;;;;6.85;3.10;;;3.40;99.90;;;3.21;88.00;101128.25;5179071;28;20119;-78
2023/04/06 01:59:57;;;;;;;6.70;3.42;;;3.40;99.90;;;3.17;88.03;101129.69;5184708;28;20048;-77
2023/04/06 02:02:45;;;;;;;7.60;3.42;;;3.40;99.90;;;3.16;88.20;101124.44;5185605;28;20053;-77
2023/04/06 02:05:24;;;;;;;8.77;3.50;;;3.30;99.90;;;3.11;88.76;101123.22;5184997;28;20046;-79
2023/04/06 02:07:59;;;;;;;6.50;3.38;;;3.30;99.90;;;3.09;88.79;101122.22;5184498;28;20069;-77
2023/04/06 02:10:40;;;;;;;6.30;3.28;;;3.30;99.90;;;3.06;89.06;101122.00;5185187;28;20164;-75
2023/04/06 02:13:23;;;;;;;6.95;3.38;;;3.30;99.90;;;3.03;89.33;101114.97;5190084;28;20401;-78
2023/04/06 02:15:58;;;;;;;7.72;3.38;;;3.20;99.90;;;3.01;89.30;101123.38;5184090;28;20049;-78
2023/04/06 02:18:32;;;;;;;7.03;3.22;;;3.20;99.90;;;3.01;89.62;101123.38;5184571;28;20412;-78
2023/04/06 02:21:04;;;;;;;9.07;3.28;;;3.20;99.90;;;2.98;89.77;101124.94;5184729;28;20132;-76
2023/04/06 02:23:37;;;;;;;7.43;3.40;;;3.20;99.90;;;2.97;89.94;101118.00;5184506;28;20406;-77
2023/04/06 02:26:09;;;;;;;7.75;3.38;;;3.20;99.90;;;2.96;89.98;101116.22;5185012;28;20129;-78
2023/04/06 02:28:43;;;;;;;7.03;3.28;;;3.10;99.90;;;2.93;89.74;101121.16;5184660;28;20049;-77
2023/04/06 02:31:15;;;;;;;7.78;3.58;;;3.20;99.90;;;2.89;90.08;101114.00;5185245;28;20052;-78
2023/04/06 02:33:50;;;;;;;8.32;3.60;;;3.10;99.90;;;2.89;90.22;101118.25;5184879;28;20046;-78
2023/04/06 02:36:22;;;;;;;6.72;3.33;;;3.10;99.90;;;2.87;90.25;101118.16;5184303;28;20077;-78
2023/04/06 02:38:55;;;;;;;6.68;3.30;;;3.10;99.90;;;2.87;90.58;101119.81;5184066;28;20152;-78
2023/04/06 02:41:28;;;;;;;7.63;3.75;;;3.10;99.90;;;2.85;90.29;101114.56;5184753;28;20061;-78
2023/04/06 02:44:02;;;;;;;8.90;3.85;;;3.00;99.90;;;2.83;90.55;101118.72;5184159;28;20053;-77
2023/04/06 02:46:44;;;;;;;6.95;3.47;;;3.00;99.90;;;2.79;90.69;101119.28;5184347;28;20084;-78
2023/04/06 02:49:16;;;;;;;7.53;3.28;;;3.00;99.90;;;2.77;90.43;101114.81;5184236;28;20046;-77
2023/04/06 02:51:49;;;;;;;7.40;3.70;;;3.00;99.90;;;2.74;90.73;101115.50;5184580;28;20053;-77
2023/04/06 02:54:29;;;;;;;7.60;3.78;;;2.90;99.90;;;2.71;90.50;101107.56;5184390;28;20478;-78
2023/04/06 02:57:01;;;;;;;7.35;4.05;;;2.90;99.90;;;2.70;90.75;101110.91;5184017;28;20065;-78
2023/04/06 02:59:46;;;;;;;6.35;3.95;;;2.90;99.90;;;2.69;90.94;101115.16;5183662;28;20053;-77
2023/04/06 03:02:26;;;;;;;8.07;4.15;;;2.90;99.90;;;2.66;90.74;101107.22;5184407;28;20440;-77
2023/04/06 03:05:05;;;;;;;6.32;3.25;;;2.90;99.90;;;2.66;90.87;101099.50;5191708;28;20045;-77
2023/04/06 03:07:42;;;;;;;6.72;3.30;;;2.90;99.90;;;2.65;90.61;101097.72;5183269;28;20054;-75
2023/04/06 03:10:20;;;;;;;6.22;2.95;;;2.90;99.90;;;2.67;90.81;101096.16;5183766;28;20080;-77
2023/04/06 03:12:54;;;;;;;6.90;3.15;;;2.90;99.90;;;2.67;90.44;101098.72;5183854;28;20061;-78
2023/04/06 03:15:30;;;;;;;7.30;3.47;;;2.90;99.90;;;2.66;90.44;101098.59;5183862;28;20455;-79
2023/04/06 03:18:15;;;;;;;9.57;4.28;;;2.90;99.90;;;2.66;90.28;101101.19;5183815;28;20073;-78
2023/04/06 03:20:53;;;;;;;8.63;3.72;;;2.90;99.90;;;2.66;90.13;101093.44;5183631;28;20425;-78
2023/04/06 03:23:26;;;;;;;8.40;3.60;;;2.90;99.90;;;2.64;90.31;101090.78;5184045;28;20049;-77
2023/04/06 03:26:04;;;;;;;10.00;4.10;;;2.90;99.90;;;2.64;90.24;101098.50;5183398;28;20049;-78
2023/04/06 03:28:36;;;;;;;7.32;3.33;;;2.80;99.90;;;2.63;89.75;101098.41;5183473;28;20042;-78
2023/04/06 03:31:12;;;;;;;7.75;3.78;;;2.80;99.90;;;2.61;89.35;101102.56;5175837;28;20042;-76
2023/04/06 03:33:57;;;;;;;8.63;3.28;;;2.80;99.90;;;2.59;89.22;101106.69;5184826;28;20060;-78
2023/04/06 03:36:35;;;;;;;8.20;3.95;;;2.80;99.90;;;2.55;89.49;101100.44;5183318;28;20100;-77
2023/04/06 03:39:08;;;;;;;;;;;2.80;99.90;;;2.52;89.80;101104.44;5176088;28;20515;-79
2023/04/06 03:41:45;;;;;;;6.60;3.22;;;2.70;99.90;;;2.46;90.22;101099.75;5183318;28;20028;-78
2023/04/06 03:44:40;;;;;;;6.45;3.33;;;2.70;99.90;;;2.43;90.10;101095.28;5181388;28;20049;-78
2023/04/06 03:47:14;;;;;;;7.60;4.15;;;2.70;99.90;;;2.42;90.69;101098.66;5184635;28;20397;-77
2023/04/06 03:49:46;;;;;;;8.45;3.65;;;2.70;99.90;;;2.42;90.83;101096.09;5183312;28;20069;-78
2023/04/06 03:52:22;;;;;;;6.78;3.58;;;2.70;99.90;;;2.43;90.44;101099.53;5186192;28;20041;-76
2023/04/06 03:54:56;;;;;;;7.68;3.85;;;2.70;99.90;;;2.42;91.26;101103.81;5193020;28;20058;-78
2023/04/06 03:57:29;;;;;;;6.22;3.17;;;2.60;99.90;;;2.41;91.15;101103.66;5183362;28;20054;-78
2023/04/06 04:00:04;;;;;;;6.63;3.60;;;2.60;99.90;;;2.37;91.38;101110.28;5183185;28;20038;-78
2023/04/06 04:02:46;;;;;;;7.78;3.83;;;2.60;99.90;;;2.38;91.49;101098.31;5184220;28;20108;-79
2023/04/06 04:05:18;;;;;;;7.95;4.05;;;2.60;99.90;;;2.39;91.51;101108.72;5284698;23;20041;-71
2023/04/06 04:07:52;;;;;;;6.30;3.03;;;2.60;99.90;;;2.40;91.55;101109.59;5152138;28;20043;-71
2023/04/06 04:10:27;;;;;;;6.22;3.25;;;2.60;99.90;;;2.41;91.08;101112.31;5166275;28;20402;-71
2023/04/06 04:12:59;;;;;;;6.50;3.75;;;2.60;99.90;;;2.41;90.99;101111.38;5171694;28;20046;-71
2023/04/06 04:15:32;;;;;;;7.35;3.50;;;2.60;99.90;;;2.39;90.90;101106.13;5165648;28;20046;-71
2023/04/06 04:18:08;;;;;;;8.32;3.75;;;2.60;99.90;;;2.39;90.75;101108.72;5173597;28;20537;-70
2023/04/06 04:20:41;;;;;;;7.18;3.92;;;2.60;99.90;;;2.40;90.09;101107.03;5166020;28;20068;-70
2023/04/06 04:23:15;;;;;;;8.52;3.78;;;2.70;99.90;;;2.42;89.47;101101.22;5176175;28;20050;-69
2023/04/06 04:25:47;;;;;;;7.28;3.53;;;2.70;99.90;;;2.45;89.75;101105.69;5165419;28;20054;-71
2023/04/06 04:28:20;;;;;;;6.70;3.70;;;2.70;99.90;;;2.45;89.56;101104.00;5172599;28;20074;-70
2023/04/06 04:30:53;;;;;;;7.43;3.75;;;2.70;99.90;;;2.44;89.51;101104.78;5172614;28;20495;-70
2023/04/06 04:33:26;;;;;;;7.22;3.92;;;2.70;99.90;;;2.47;89.36;101108.38;5172942;28;20050;-69
2023/04/06 04:36:02;;;;;;;6.05;3.22;;;2.70;99.90;;;2.44;89.62;101107.38;5172640;28;20058;-76
2023/04/06 04:38:41;;;;;;;6.75;3.65;;;2.70;99.90;;;2.42;89.65;101116.66;5172584;28;20136;-71
2023/04/06 04:41:13;;;;;;;7.28;3.33;;;2.60;99.90;;;2.40;89.84;101109.59;5169566;28;20054;-70
2023/04/06 04:43:49;;;;;;;6.78;3.65;;;2.60;99.90;;;2.39;90.21;101107.81;5185194;28;20495;-73
2023/04/06 04:46:26;;;;;;;6.53;3.53;;;2.60;99.90;;;2.36;90.36;101115.31;5178240;28;20415;-72
2023/04/06 04:49:01;;;;;;;9.07;3.47;;;2.60;99.90;;;2.33;90.79;101113.41;5175445;28;20053;-70
2023/04/06 04:51:36;;;;;;;9.35;4.10;;;2.50;99.90;;;2.31;90.96;101115.00;5168310;28;20046;-71
2023/04/06 04:54:22;;;;;;;7.32;3.38;;;2.50;99.90;;;2.30;91.30;101109.75;5186051;28;20045;-70
2023/04/06 04:56:54;;;;;;;7.38;3.70;;;2.50;99.90;;;2.30;91.50;101112.31;5184160;28;20144;-70
2023/04/06 04:59:43;;;;;;;8.00;3.50;;;2.50;99.90;;;2.31;91.62;101108.94;5167882;28;20054;-72
2023/04/06 05:02:22;;;;;;;7.00;3.42;;;2.50;99.90;;;2.32;91.89;101115.88;5170526;28;20061;-72
2023/04/06 05:05:17;;;;;;;7.22;3.65;;;2.50;99.90;;;2.30;92.11;101113.19;5178606;28;20061;-70
2023/04/06 05:07:49;;;;;;;6.65;3.30;;;2.50;99.90;;;2.31;91.69;101120.13;5174184;28;20041;-72
2023/04/06 05:10:34;;;;;;;8.00;3.67;;;2.50;99.90;;;2.31;91.58;101116.66;5170975;28;20056;-71
2023/04/06 05:13:08;;;;;;;8.20;4.10;;;2.50;99.90;;;2.31;92.13;101120.13;5178938;28;20488;-71
2023/04/06 05:15:41;;;;;;;7.00;3.47;;;2.50;99.90;;;2.32;91.89;101116.78;5163864;28;20073;-71
2023/04/06 05:18:29;;;;;;;7.10;3.60;;;2.50;99.90;;;2.33;92.17;101115.97;5170896;28;20050;-70
2023/04/06 05:21:04;;;;;;;7.75;3.83;;;2.60;99.90;;;2.35;92.34;101114.44;5178787;28;20034;-71
2023/04/06 05:23:48;;;;;;;6.85;3.30;;;2.60;99.90;;;2.38;92.34;101121.47;5178885;28;20069;-72
2023/04/06 05:26:20;;;;;;;7.07;3.75;;;2.60;99.90;;;2.41;92.29;101114.88;5177959;28;20391;-71
2023/04/06 05:28:55;;;;;;;7.82;3.63;;;2.70;99.90;;;2.47;92.15;101110.94;5174215;28;20056;-73
2023/04/06 05:31:28;;;;;;;6.63;3.35;;;2.70;99.90;;;2.52;92.42;101115.63;5182829;28;20510;-75
2023/04/06 05:34:00;;;;;;;8.05;4.03;;;2.70;99.90;;;2.58;92.29;101116.06;5171506;28;20465;-74
2023/04/06 05:36:40;;;;;;;8.27;4.07;;;2.80;99.90;;;2.66;92.00;101116.63;5169281;28;20046;-74
2023/04/06 05:39:21;;;;;;;6.72;3.70;;;2.90;99.90;;;2.76;91.53;101116.50;5168697;28;20061;-70
2023/04/06 05:41:56;;;;;;;7.78;3.72;;;2.90;99.90;;;2.84;91.18;101115.34;5172891;28;20058;-71
2023/04/06 05:44:39;;;;;;;8.85;3.85;;;3.00;99.90;;;2.91;90.38;101117.56;5174387;28;20050;-71
2023/04/06 05:47:16;;;;;;;7.68;3.72;;;3.10;99.90;;;2.98;90.07;101118.91;5169224;28;20050;-71
2023/04/06 05:49:51;;;;;;;8.48;3.38;;;3.20;99.90;;;3.04;89.83;101119.31;5171980;28;20047;-72
2023/04/06 05:52:33;;;;;;;7.63;3.58;;;3.20;99.90;;;3.12;89.94;101123.31;5183005;28;20162;-70
2023/04/06 05:55:06;;;;;;;7.25;3.70;;;3.30;99.90;;;3.17;89.90;101115.91;5166273;28;20050;-72
2023/04/06 05:57:39;;;;;;;8.20;3.83;;;3.40;99.90;;;3.24;90.08;101124.19;5183555;28;20045;-71
2023/04/06 06:00:13;;;;;;;8.10;4.07;;;3.40;99.90;;;3.32;89.99;101126.38;5184229;28;20490;-73
2023/04/06 06:02:50;;;;;;;10.38;3.85;;;3.50;99.90;;;3.41;90.29;101125.34;5174664;28;20533;-70
2023/04/06 06:05:27;;;;;;;6.95;3.33;;;3.60;99.90;;;3.50;89.90;101123.38;5136263;28;1104081;-60
2023/04/06 06:08:05;;;;;;;8.07;4.53;;;3.70;99.90;;;3.62;89.57;101122.44;5162931;28;20209;-57
2023/04/06 06:10:40;;;;;;;8.68;4.15;;;3.80;99.90;;;3.74;89.65;101129.31;5165077;28;20043;-59
2023/04/06 06:13:14;;;;;;;7.97;4.00;;;3.90;99.90;;;3.91;89.52;101121.78;5175752;28;20537;-58
2023/04/06 06:15:47;;;;;;;7.40;4.03;;;4.00;99.90;;;4.11;89.05;101123.09;5170772;28;20054;-59
2023/04/06 06:18:19;;;;;;;8.68;4.40;;;4.20;99.90;;;4.48;88.68;101116.97;5171394;28;20139;-59
2023/04/06 06:20:54;;;;;;;9.60;4.75;;;4.40;99.90;;;5.71;87.41;101113.38;5163037;28;20042;-58
2023/04/06 06:23:27;;;;;;;8.35;4.15;;;5.10;99.90;;;7.78;81.67;101112.75;5162885;28;20149;-58
2023/04/06 06:26:00;;;;;;;7.30;3.60;;;6.50;99.90;;;9.85;72.32;101109.47;5162639;28;20129;-57
2023/04/06 06:28:35;;;;;;;7.63;3.60;;;8.10;99.90;;;11.58;63.23;101114.56;5164231;28;20038;-58
2023/04/06 06:31:07;;;;;;;6.50;3.45;;;9.70;96.10;;;12.84;55.24;101117.03;5162912;28;20050;-57
2023/04/06 06:33:39;;;;;;;8.73;4.00;;;11.10;87.50;;;13.92;51.48;101112.31;5163563;28;20053;-57
2023/04/06 06:36:11;;;;;;;9.90;4.20;;;12.20;78.30;;;15.06;48.15;101129.97;5167572;28;20042;-57
2023/04/06 06:38:45;;;;;;;7.03;3.85;;;13.20;71.70;;;15.78;45.89;101127.94;5164377;28;20045;-58
2023/04/06 06:41:19;;;;;;;7.97;4.15;;;14.10;66.90;;;16.55;43.66;101125.75;5157238;28;20634;-56
2023/04/06 06:43:51;;;;;;;6.72;3.95;;;14.90;63.00;;;17.29;41.82;101125.13;5162912;28;20046;-58
2023/04/06 06:46:24;;;;;;;7.18;3.90;;;15.70;59.80;;;17.49;40.84;101115.69;5169846;28;20050;-57
2023/04/06 06:48:56;;;;;;;5.97;3.55;;;16.00;57.70;;;17.72;40.35;101128.28;5168887;28;20057;-56
2023/04/06 06:51:28;;;;;;;7.05;3.70;;;16.30;56.40;;;18.21;39.95;101123.50;5171467;28;20046;-58
2023/04/06 06:54:02;;;;;;;9.20;4.97;;;16.70;55.90;;;18.61;38.77;101129.97;5165029;28;20425;-58
2023/04/06 06:56:35;;;;;;;8.57;3.83;;;17.10;54.40;;;18.84;38.36;101132.78;5160877;28;20054;-60
2023/04/06 06:59:08;;;;;;;9.70;4.55;;;17.40;53.70;;;18.62;37.38;101119.41;5162455;28;20054;-57
2023/04/06 07:01:41;;;;;;;8.98;4.40;;;17.50;52.00;;;18.05;37.93;101120.69;5162984;28;20097;-57
2023/04/06 07:04:13;;;;;;;7.97;4.05;;;17.10;51.90;;;17.80;38.50;101116.97;5163796;28;20050;-58
2023/04/06 07:06:45;;;;;;;8.05;4.35;;;16.90;52.40;;;17.76;38.43;101115.16;5161266;28;20046;-59
2023/04/06 07:09:19;;;;;;;9.57;4.40;;;16.80;52.30;;;17.89;38.47;101102.97;5167728;28;20124;-59
2023/04/06 07:11:51;;;;;;;8.85;4.85;;;16.90;52.30;;;17.83;38.26;101108.19;5172968;28;20379;-58
2023/04/06 07:14:24;;;;;;;8.02;4.70;;;16.90;52.10;;;17.75;38.41;101107.22;5186001;28;20046;-57
2023/04/06 07:16:57;;;;;;;8.43;4.40;;;16.90;52.10;;;17.66;38.37;101101.81;5161265;28;20050;-57
2023/04/06 07:19:30;;;;;;;7.70;4.18;;;16.80;52.00;;;17.23;39.02;101106.59;5161726;28;20521;-57
2023/04/06 07:22:03;;;;;;;8.00;4.47;;;16.50;52.10;;;17.11;39.10;101095.91;5178015;28;20077;-59
2023/04/06 07:24:37;;;;;;;9.73;4.45;;;16.50;52.40;;;16.85;39.32;101098.19;5168822;28;20521;-58
2023/04/06 07:27:09;;;;;;;9.02;4.30;;;16.30;52.30;;;16.91;39.72;101104.41;5163203;28;20096;-59
2023/04/06 07:29:41;;;;;;;8.48;4.57;;;16.30;52.80;;;17.07;39.30;101106.38;5170945;28;20044;-58
2023/04/06 07:32:14;;;;;;;8.95;4.60;;;16.30;52.40;;;17.15;39.26;101108.22;5166655;28;20038;-58
2023/04/06 07:34:46;;;;;;;8.77;4.43;;;16.40;52.40;;;16.69;39.57;101097.03;5165609;28;20065;-59
2023/04/06 07:37:19;;;;;;;7.70;4.22;;;16.10;52.30;;;16.74;40.15;101101.53;5170053;28;20042;-59
2023/04/06 07:39:54;;;;;;;11.23;4.30;;;16.00;53.10;;;17.08;39.71;101107.25;5169348;28;20557;-60
2023/04/06 07:42:27;;;;;;;11.02;4.55;;;16.20;52.90;;;17.36;39.57;101097.97;5177672;28;20092;-60
2023/04/06 07:45:00;;;;;;;7.43;4.13;;;16.40;53.20;;;17.63;38.93;101103.56;5162468;28;20056;-60
2023/04/06 07:47:32;;;;;;;9.95;4.95;;;16.50;52.50;;;17.84;38.24;101099.41;5175110;28;20096;-60
2023/04/06 07:50:06;;;;;;;12.20;4.82;;;16.60;51.90;;;17.83;38.37;101105.53;5172021;28;20046;-61
2023/04/06 07:52:39;;;;;;;8.60;4.93;;;16.60;52.00;;;18.02;38.29;101096.06;5168643;28;20046;-62
2023/04/06 07:55:14;;;;;;;8.07;4.35;;;16.60;52.10;;;18.11;38.71;101097.00;5148150;28;20054;-62
2023/04/06 07:57:46;;;;;;;10.00;4.25;;;16.60;52.60;;;18.17;38.95;101088.25;5173116;28;20046;-61
2023/04/06 08:00:20;;;;;;;9.40;4.35;;;16.60;52.80;;;18.73;38.13;101092.25;5170571;28;20053;-63
2023/04/06 08:02:52;;;;;;;8.70;4.65;;;16.90;52.50;;;19.32;37.06;101092.53;5162269;28;20097;-60
2023/04/06 08:05:24;;;;;;;7.57;3.72;;;17.30;51.60;;;19.77;37.69;101089.16;5167917;28;20105;-65
2023/04/06 08:07:56;;;;;;;8.13;4.80;;;17.60;52.40;;;20.44;36.02;101100.66;5184513;28;20056;-64
2023/04/06 08:10:30;;;;;;;8.32;4.53;;;18.20;51.00;;;20.44;35.04;101095.38;5187482;28;20042;-62
2023/04/06 08:13:02;;;;;;;9.73;4.75;;;18.30;49.80;;;19.71;35.90;101088.28;5187644;28;20065;-63
2023/04/06 08:15:35;;;;;;;9.73;4.88;;;18.10;49.80;;;19.09;37.19;101097.69;5187802;28;20506;-63
2023/04/06 08:18:07;;;;;;;8.35;4.90;;;17.70;50.80;;;18.63;37.89;101091.25;5187704;28;20410;-62
2023/04/06 08:20:40;;;;;;;10.02;5.07;;;17.30;51.20;;;18.72;37.67;101085.19;5186093;28;20050;-60
2023/04/06 08:23:13;;;;;;;9.20;4.72;;;17.20;51.40;;;18.96;37.64;101095.88;5187109;28;20430;-59
2023/04/06 08:25:46;;;;;;;8.63;4.75;;;17.30;51.60;;;18.64;38.09;101082.44;5186962;28;20054;-58
2023/04/06 08:28:18;;;;;;;10.38;5.25;;;17.20;51.50;;;19.08;37.65;101081.84;5186010;28;20045;-56
2023/04/06 08:30:50;;;;;;;9.48;4.30;;;17.40;51.80;;;19.51;37.70;101075.84;5184309;28;20270;-62
2023/04/06 08:33:23;;;;;;;7.20;4.07;;;17.60;51.90;;;20.39;37.49;101073.28;5174579;28;20078;-60
2023/04/06 08:35:55;;;;;;;9.65;4.97;;;18.20;52.10;;;21.52;35.97;101079.19;5176026;28;20104;-61
2023/04/06 08:38:27;;;;;;;8.00;4.45;;;19.00;50.90;;;22.31;35.03;101077.75;5178659;28;20049;-60
2023/04/06 08:41:01;;;;;;;8.50;4.38;;;19.80;50.10;;;22.87;34.27;101086.94;5178328;28;20096;-60
2023/04/06 08:43:34;;;;;;;9.07;4.90;;;20.30;49.10;;;23.35;33.18;101086.38;5186389;28;20119;-62
2023/04/06 08:46:06;;;;;;;9.80;4.32;;;20.80;48.10;;;23.70;33.30;101089.47;5187317;28;20049;-63
2023/04/06 08:48:41;;;;;;;7.75;4.10;;;21.10;48.10;;;23.94;32.29;101077.56;5186023;28;20490;-61
2023/04/06 08:51:13;;;;;;;6.97;3.95;;;21.40;46.90;;;23.64;32.46;101078.03;5186732;28;20617;-61
2023/04/06 08:53:46;;;;;;;7.95;4.88;;;21.30;46.70;;;23.29;33.23;101082.03;5186634;28;20054;-62
2023/04/06 08:56:20;;;;;;;9.00;4.85;;;21.10;47.30;;;22.65;33.47;101077.44;5186756;28;20049;-60
2023/04/06 08:58:53;;;;;;;;;;;20.70;47.10;;;22.13;34.05;101062.84;5187108;28;20057;-62
2023/04/06 09:01:28;;;;;;;9.40;4.22;;;20.40;47.40;;;21.82;34.61;101066.59;5186502;28;19933;-61
2023/04/06 09:04:01;;;;;;;8.25;4.20;;;20.10;48.10;;;21.58;35.61;101067.63;5185985;28;20050;-61
2023/04/06 09:06:33;;;;;;;10.65;5.35;;;19.90;48.90;;;20.77;35.76;101066.19;5184944;28;20049;-60
2023/04/06 09:09:06;;;;;;;10.07;4.78;;;19.40;48.60;;;20.23;36.87;101068.03;5185811;28;20049;-60
2023/04/06 09:11:51;;;;;;;9.00;4.93;;;19.00;49.40;;;19.91;37.97;101059.19;5170107;28;20038;-60
2023/04/06 09:14:36;;;;;;;9.75;5.47;;;18.80;50.50;;;19.50;37.95;101052.06;5166117;28;20042;-57
2023/04/06 09:17:08;;;;;;;10.65;4.53;;;18.60;50.30;;;19.16;38.42;101065.13;5166185;28;20053;-57
2023/04/06 09:19:46;;;;;;;13.02;6.00;;;18.30;50.40;;;18.69;38.96;101057.88;5164772;28;20674;-57
2023/04/06 09:22:20;;;;;;;17.33;4.78;;;18.00;51.10;;;18.72;42.20;101059.69;5165975;28;20080;-62
2023/04/06 09:24:54;;;;;;;9.30;4.03;;;18.00;54.50;;;19.01;41.94;101051.88;5176087;28;20153;-62
2023/04/06 09:27:32;;;;;;;;;;;18.30;54.40;;;19.07;41.53;101054.56;5186668;28;20081;-58
2023/04/06 09:30:13;;;;;;;11.60;5.85;;;18.40;53.60;;;18.83;39.77;101051.78;5186101;28;19975;-59
2023/04/06 09:32:47;;;;;;;10.63;4.38;;;18.30;51.30;;;18.66;40.19;101049.97;5186196;28;20574;-58
2023/04/06 09:35:20;;;;;;;;;;;18.10;51.70;;;18.40;40.48;101046.25;5186416;28;20042;-59
2023/04/06 09:37:55;;;;;;;8.70;3.88;;;17.90;52.00;;;18.19;41.14;101041.66;5186089;28;19928;-58
2023/04/06 09:40:28;;;;;;;11.10;4.85;;;17.70;52.60;;;18.11;41.79;101041.59;5185759;28;20502;-57
2023/04/06 09:43:06;;;;;;;11.88;5.80;;;17.50;53.30;;;17.62;42.96;101033.25;5186019;28;20117;-60
2023/04/06 09:45:39;;;;;;;12.15;6.10;;;17.20;54.20;;;17.25;42.97;101039.00;5185828;28;20046;-59
2023/04/06 09:48:11;;;;;;;13.35;5.03;;;16.90;54.10;;;17.12;43.97;101037.06;5145747;28;20051;-57
2023/04/06 09:50:44;;;;;;;11.38;4.97;;;16.80;55.10;;;17.04;44.21;101031.72;5162239;28;20096;-58
2023/04/06 09:53:18;;;;;;;9.18;4.35;;;16.70;55.40;;;17.25;45.37;101028.44;5180424;28;20105;-67
2023/04/06 09:55:53;;;;;;;9.27;4.75;;;16.80;56.70;;;17.50;44.80;101026.97;5165360;28;20651;-61
2023/04/06 09:58:27;;;;;;;11.82;5.22;;;16.90;56.10;;;17.80;45.03;101029.03;5163768;28;20182;-60
2023/04/06 10:01:09;;;;;;;9.85;4.22;;;17.20;56.50;;;18.02;43.87;101027.47;5172791;28;20050;-61
2023/04/06 10:03:51;;;;;;;9.68;4.80;;;17.50;55.90;;;18.04;44.19;101023.97;5172574;28;20096;-61
2023/04/06 10:06:28;;;;;;;11.25;3.67;;;17.50;55.80;;;18.23;45.48;101016.19;5196366;23;20042;-77
2023/04/06 10:09:03;;;;;;;9.52;4.07;;;17.70;57.20;;;18.41;43.40;101021.59;5175955;28;20038;-76
2023/04/06 10:11:35;;;;;;;9.45;3.63;;;17.80;55.60;;;18.55;44.72;101019.94;5185110;28;20117;-75
2023/04/06 10:14:09;;;;;;;12.10;4.68;;;17.90;56.80;;;18.66;44.02;101018.28;5176861;28;20125;-77
2023/04/06 10:16:41;;;;;;;8.45;3.42;;;18.10;55.50;;;18.74;44.50;101013.03;5184996;28;20107;-77
2023/04/06 10:19:20;;;;;;;7.68;3.55;;;18.20;56.40;;;18.80;44.19;101014.81;5185156;28;20065;-75
2023/04/06 10:21:56;;;;;;;8.15;3.75;;;18.30;55.90;;;18.90;44.31;101017.47;5182580;28;20046;-77
2023/04/06 10:24:28;;;;;;;12.38;5.20;;;18.40;55.90;;;18.82;42.67;101018.34;5178799;28;20125;-77
2023/04/06 10:27:02;;;;;;;10.85;4.47;;;18.30;54.40;;;18.94;43.39;101023.69;5182079;28;20131;-75
2023/04/06 10:29:46;;;;;;;9.10;3.90;;;18.40;55.00;;;19.10;42.97;101014.03;5177394;28;20074;-77
2023/04/06 10:32:18;;;;;;;10.93;4.60;;;18.50;54.70;;;19.27;41.71;101011.47;5178705;28;20042;-78
2023/04/06 10:34:50;;;;;;;10.23;3.92;;;18.60;53.70;;;19.33;41.78;101011.47;5171192;28;20137;-77
2023/04/06 10:37:23;;;;;;;12.23;4.75;;;18.60;53.50;;;19.37;41.27;101002.69;5178237;28;20056;-77
2023/04/06 10:39:58;;;;;;;9.07;3.85;;;18.70;53.30;;;19.44;42.15;101004.47;5176139;28;20144;-76
2023/04/06 10:42:38;;;;;;;11.85;5.20;;;18.70;54.10;;;19.40;40.28;101000.03;5169174;28;20038;-76
2023/04/06 10:45:21;;;;;;;10.45;4.25;;;18.80;52.20;;;19.27;41.06;101008.81;5164601;28;20134;-77
2023/04/06 10:47:54;;;;;;;11.35;4.60;;;18.70;52.90;;;19.11;41.28;101000.84;5172782;28;20049;-77
2023/04/06 10:50:27;;;;;;;9.60;4.18;;;18.50;52.80;;;19.15;42.43;101007.88;5168899;28;20496;-76
2023/04/06 10:53:03;;;;;;;9.20;3.58;;;18.50;54.00;;;19.14;42.57;100997.31;5174811;28;20141;-76
2023/04/06 10:55:39;;;;;;;12.60;3.88;;;18.50;54.10;;;19.11;41.61;101000.84;5168605;28;20585;-77